Archival Weather

Ambodedjo

Ambodedjo, Mali (GAMB)

Report from: Wednesday, December 6, 2023 3:00 PM GMT
Current time: Sunday, July 14, 2024 1:57 AM GMT

Current weather – Weather history – Daily summaries
Weather forecast

Temperature35.0°C (95.0°F)
Heat index32.6°C (90.7°F)
Dew point5.0°C (41.0°F)
Winds 10 kts (5.1 m/s, 11.5 mph) North-Northwest (340°)
Clouds Sky clear
Altimeter29.85 in.Hg (1011 mB)
Relative humidity16 %
Density altitude2,476 ft. (755 m)
Remarks Ceiling and visibility OK
Flight conditions Visual Meteorological Conditions
Raw dataGAMB 061500Z 34010KT CAVOK 35/05 Q1011
An error has occurred. This application may no longer respond until reloaded. Reload 🗙